createdAt,value
2022-08-28T00:01:08.145Z,82.24
2022-08-28T00:03:56.197Z,82.11
2022-08-28T00:06:44.459Z,82.10
2022-08-28T00:09:33.056Z,81.89
2022-08-28T00:12:20.883Z,82.07
2022-08-28T00:15:14.727Z,82.35
2022-08-28T00:18:04.180Z,83.53
2022-08-28T00:20:53.193Z,84.40
2022-08-28T00:23:43.540Z,84.48
2022-08-28T00:26:50.030Z,84.46
2022-08-28T00:29:38.676Z,84.38
2022-08-28T00:32:27.206Z,84.70
2022-08-28T00:35:17.918Z,84.71
2022-08-28T00:38:06.229Z,83.59
2022-08-28T00:41:03.640Z,83.18
2022-08-28T00:44:06.810Z,83.24
2022-08-28T00:46:57.104Z,82.97
2022-08-28T00:49:53.295Z,82.57
2022-08-28T00:52:41.853Z,82.58
2022-08-28T00:55:30.627Z,82.38
2022-08-28T00:58:20.332Z,82.78
2022-08-28T01:01:08.116Z,83.68
2022-08-28T01:03:56.089Z,83.47
2022-08-28T01:06:53.690Z,83.23
2022-08-28T01:09:51.083Z,82.97
2022-08-28T01:12:39.761Z,83.34
2022-08-28T01:15:35.248Z,83.63
2022-08-28T01:18:25.294Z,83.38
2022-08-28T01:21:44.631Z,83.02
2022-08-28T01:24:33.950Z,83.25
2022-08-28T01:27:23.557Z,83.03
2022-08-28T01:30:17.550Z,83.39
2022-08-28T01:33:06.186Z,83.45
2022-08-28T01:35:54.064Z,83.88
2022-08-28T01:38:45.475Z,84.13
2022-08-28T01:41:34.180Z,83.99
2022-08-28T01:44:26.073Z,84.68
2022-08-28T01:47:13.893Z,84.51
2022-08-28T01:50:01.844Z,84.33
2022-08-28T01:52:49.804Z,84.18
2022-08-28T01:55:37.719Z,84.79
2022-08-28T01:58:28.043Z,84.33
2022-08-28T02:01:22.100Z,84.19
2022-08-28T02:04:11.209Z,83.96
2022-08-28T02:06:59.517Z,83.94
2022-08-28T02:09:47.098Z,83.80
2022-08-28T02:12:36.105Z,83.45
2022-08-28T02:15:26.157Z,82.86
2022-08-28T02:18:14.699Z,82.54
2022-08-28T02:21:02.669Z,82.40
2022-08-28T02:23:50.802Z,82.42
2022-08-28T02:26:38.873Z,82.30
2022-08-28T02:29:27.406Z,82.45
2022-08-28T02:32:17.439Z,82.87
2022-08-28T02:35:12.024Z,82.95
2022-08-28T02:38:01.202Z,82.80
2022-08-28T02:40:50.203Z,82.73
2022-08-28T02:43:39.489Z,82.59
2022-08-28T02:46:27.779Z,82.76
2022-08-28T02:49:15.640Z,82.95
2022-08-28T02:52:06.933Z,82.93
2022-08-28T02:54:55.105Z,82.81
2022-08-28T02:57:43.923Z,82.58
2022-08-28T03:00:31.466Z,82.61
2022-08-28T03:03:20.487Z,82.89
2022-08-28T03:06:12.270Z,83.31
2022-08-28T03:09:00.397Z,83.69
2022-08-28T03:11:48.253Z,82.93
2022-08-28T03:14:36.589Z,83.19
2022-08-28T03:17:24.438Z,83.07
2022-08-28T03:20:15.079Z,83.21
2022-08-28T03:23:29.375Z,83.24
2022-08-28T03:26:21.446Z,82.80
2022-08-28T03:29:09.367Z,82.75
2022-08-28T03:31:57.956Z,82.63
2022-08-28T03:34:45.893Z,82.20
2022-08-28T03:37:33.768Z,81.89
2022-08-28T03:40:22.213Z,81.39
2022-08-28T03:43:21.591Z,80.63
2022-08-28T03:46:15.415Z,80.07
2022-08-28T03:49:05.300Z,79.82
2022-08-28T03:51:53.423Z,78.84
2022-08-28T03:54:41.331Z,77.89
2022-08-28T03:57:30.401Z,78.11
2022-08-28T04:00:20.547Z,77.67
2022-08-28T04:03:09.245Z,77.07
2022-08-28T04:05:57.252Z,76.54
2022-08-28T04:08:45.475Z,76.33
2022-08-28T04:11:42.536Z,75.29
2022-08-28T04:14:30.664Z,75.12
2022-08-28T04:17:18.457Z,74.36
2022-08-28T04:20:09.051Z,73.62
2022-08-28T04:22:57.190Z,72.97
2022-08-28T04:25:48.385Z,72.49
2022-08-28T04:28:39.279Z,72.15
2022-08-28T04:31:31.740Z,72.29
2022-08-28T04:34:20.291Z,72.44
2022-08-28T04:37:08.328Z,72.20
2022-08-28T04:39:56.256Z,71.65
2022-08-28T04:42:45.298Z,71.40
2022-08-28T04:45:34.051Z,71.19
2022-08-28T04:48:22.330Z,71.42
2022-08-28T04:51:14.269Z,71.01
2022-08-28T04:54:03.671Z,71.04
2022-08-28T04:56:52.147Z,70.76
2022-08-28T04:59:42.134Z,70.27
2022-08-28T05:02:30.302Z,69.53
2022-08-28T05:05:19.331Z,69.08
2022-08-28T05:08:10.134Z,68.49
2022-08-28T05:10:59.570Z,68.15
2022-08-28T05:13:49.288Z,67.57
2022-08-28T05:16:50.292Z,67.22
2022-08-28T05:19:38.121Z,66.90
2022-08-28T05:22:29.080Z,66.77
2022-08-28T05:25:17.109Z,66.46
2022-08-28T05:28:06.164Z,66.04
2022-08-28T05:31:10.666Z,65.70
2022-08-28T05:34:04.722Z,65.97
2022-08-28T05:36:55.765Z,66.78
2022-08-28T05:39:43.512Z,66.99
2022-08-28T05:42:33.109Z,66.91
2022-08-28T05:45:24.086Z,66.72
2022-08-28T05:48:12.202Z,66.22
2022-08-28T05:51:17.725Z,64.68
2022-08-28T05:54:08.138Z,63.21
2022-08-28T05:56:56.162Z,62.75
2022-08-28T05:59:44.674Z,62.06
2022-08-28T06:02:35.213Z,61.39
2022-08-28T06:05:23.229Z,60.79
2022-08-28T06:08:11.329Z,59.42
2022-08-28T06:11:02.366Z,58.29
2022-08-28T06:13:50.696Z,56.70
2022-08-28T06:16:42.008Z,54.72
2022-08-28T06:19:33.368Z,53.36
2022-08-28T06:22:21.318Z,52.10
2022-08-28T06:25:12.327Z,48.41
2022-08-28T06:28:00.068Z,45.62
2022-08-28T06:31:18.059Z,42.31
2022-08-28T06:33:59.575Z,39.42
2022-08-28T06:36:53.164Z,37.78
2022-08-28T06:39:41.662Z,36.19
2022-08-28T06:42:31.523Z,34.26
2022-08-28T06:45:19.611Z,32.37
2022-08-28T06:48:09.177Z,30.87
2022-08-28T06:51:02.084Z,29.67
2022-08-28T06:53:50.282Z,28.46
2022-08-28T06:56:41.225Z,27.82
2022-08-28T06:59:29.298Z,26.83
2022-08-28T07:02:17.498Z,26.03
2022-08-28T07:05:08.678Z,25.41
2022-08-28T07:07:56.685Z,25.82
2022-08-28T07:10:44.631Z,25.31
2022-08-28T07:13:33.939Z,24.54
2022-08-28T07:16:32.011Z,24.18
2022-08-28T07:19:20.213Z,23.72
2022-08-28T07:22:08.019Z,23.78
2022-08-28T07:24:57.993Z,23.89
2022-08-28T07:27:45.855Z,23.01
2022-08-28T07:30:36.407Z,22.36
2022-08-28T07:33:25.068Z,22.31
2022-08-28T07:36:29.927Z,22.82
2022-08-28T07:39:18.639Z,22.87
2022-08-28T07:42:06.421Z,23.03
2022-08-28T07:44:55.106Z,22.96
2022-08-28T07:47:42.756Z,22.47
2022-08-28T07:50:30.752Z,22.36
2022-08-28T07:53:18.740Z,22.66
2022-08-28T07:56:07.155Z,22.69
2022-08-28T07:58:56.379Z,22.67
2022-08-28T08:01:46.783Z,22.78
2022-08-28T08:04:35.527Z,22.47
2022-08-28T08:07:23.727Z,22.53
2022-08-28T08:10:15.076Z,22.56
2022-08-28T08:13:08.037Z,22.49
2022-08-28T08:16:12.710Z,22.80
2022-08-28T08:19:01.901Z,22.88
2022-08-28T08:21:54.529Z,22.67
2022-08-28T08:24:42.985Z,22.41
2022-08-28T08:27:38.781Z,21.84
2022-08-28T08:30:29.082Z,21.70
2022-08-28T08:33:17.057Z,21.80
2022-08-28T08:36:11.393Z,22.05
2022-08-28T08:39:00.612Z,22.14
2022-08-28T08:41:54.767Z,22.45
2022-08-28T08:44:48.546Z,22.37
2022-08-28T08:47:52.456Z,22.57
2022-08-28T08:50:42.022Z,22.97
2022-08-28T08:53:55.143Z,23.30
2022-08-28T08:56:45.130Z,23.63
2022-08-28T08:59:38.523Z,23.51
2022-08-28T09:02:34.639Z,22.98
2022-08-28T09:05:39.895Z,22.70
2022-08-28T09:08:39.559Z,23.16
2022-08-28T09:12:04.943Z,22.81
2022-08-28T09:14:58.599Z,22.18
2022-08-28T09:18:22.437Z,21.97
2022-08-28T09:21:10.115Z,21.45
2022-08-28T09:24:05.587Z,21.63
2022-08-28T09:27:14.219Z,21.04
2022-08-28T09:30:09.052Z,21.28
2022-08-28T09:33:01.159Z,20.93
2022-08-28T09:35:49.659Z,20.72
2022-08-28T09:38:39.257Z,20.70
2022-08-28T09:41:45.246Z,20.71
2022-08-28T09:44:33.726Z,20.49
2022-08-28T09:47:42.855Z,20.64
2022-08-28T09:50:43.623Z,20.35
2022-08-28T09:53:38.601Z,20.55
2022-08-28T09:56:39.931Z,20.29
2022-08-28T09:59:29.716Z,20.73
2022-08-28T10:02:58.900Z,20.49
2022-08-28T10:06:03.933Z,20.93
2022-08-28T10:09:15.644Z,20.48
2022-08-28T10:12:55.011Z,20.54
2022-08-28T10:16:03.639Z,20.62
2022-08-28T10:19:12.345Z,20.73
2022-08-28T10:22:33.659Z,20.73
2022-08-28T10:26:10.270Z,21.33
2022-08-28T10:29:16.960Z,21.42
2022-08-28T10:32:19.662Z,22.21
2022-08-28T10:35:26.008Z,22.65
2022-08-28T10:38:53.108Z,22.91
2022-08-28T10:41:54.799Z,22.64
2022-08-28T10:45:06.364Z,23.23
2022-08-28T10:48:05.392Z,23.69
2022-08-28T10:51:02.641Z,23.85
2022-08-28T10:54:00.831Z,24.14
2022-08-28T10:57:03.619Z,23.67
2022-08-28T10:59:54.455Z,23.99
2022-08-28T11:02:48.723Z,23.96
2022-08-28T11:05:53.690Z,24.24
2022-08-28T11:08:42.091Z,24.54
2022-08-28T11:11:49.273Z,24.62
2022-08-28T11:14:48.513Z,24.68
2022-08-28T11:17:41.783Z,24.76
2022-08-28T11:20:31.006Z,25.59
2022-08-28T11:23:49.778Z,26.08
2022-08-28T11:27:36.576Z,26.82
2022-08-28T11:30:36.459Z,26.88
2022-08-28T11:33:48.622Z,27.46
2022-08-28T11:36:36.487Z,28.44
2022-08-28T11:39:24.619Z,28.65
2022-08-28T11:42:14.123Z,29.33
2022-08-28T11:45:02.116Z,29.16
2022-08-28T11:47:53.043Z,29.45
2022-08-28T11:50:57.457Z,29.84
2022-08-28T11:54:03.096Z,30.18
2022-08-28T11:57:32.714Z,30.68
2022-08-28T12:01:03.878Z,31.87
2022-08-28T12:04:08.444Z,32.31
2022-08-28T12:07:11.711Z,33.46
2022-08-28T12:10:04.237Z,34.06
2022-08-28T12:12:59.942Z,34.98
2022-08-28T12:16:05.238Z,36.15
2022-08-28T12:18:52.889Z,37.38
2022-08-28T12:21:42.867Z,37.66
2022-08-28T12:24:31.077Z,38.36
2022-08-28T12:27:19.596Z,39.55
2022-08-28T12:30:08.309Z,40.59
2022-08-28T12:33:43.029Z,41.44
2022-08-28T12:36:31.568Z,42.94
2022-08-28T12:39:19.819Z,43.76
2022-08-28T12:42:19.394Z,44.61
2022-08-28T12:45:10.525Z,45.47
2022-08-28T12:48:13.404Z,46.45
2022-08-28T12:51:05.993Z,46.77
2022-08-28T12:54:06.929Z,47.11
2022-08-28T12:56:55.050Z,47.42
2022-08-28T12:59:50.587Z,47.60
2022-08-28T13:02:42.035Z,47.48
2022-08-28T13:05:40.487Z,47.35
2022-08-28T13:08:33.961Z,46.74
2022-08-28T13:11:24.344Z,46.58
2022-08-28T13:14:14.898Z,46.62
2022-08-28T13:17:04.076Z,47.08
2022-08-28T13:20:06.147Z,46.99
2022-08-28T13:23:00.930Z,47.27
2022-08-28T13:26:06.977Z,47.26
2022-08-28T13:28:56.883Z,46.82
2022-08-28T13:31:44.907Z,46.31
2022-08-28T13:34:47.988Z,48.05
2022-08-28T13:38:00.956Z,48.77
2022-08-28T13:40:59.512Z,49.10
2022-08-28T13:43:47.684Z,49.91
2022-08-28T13:46:35.993Z,50.44
2022-08-28T13:49:27.853Z,50.17
2022-08-28T13:52:17.849Z,50.38
2022-08-28T13:55:07.581Z,51.09
2022-08-28T13:57:58.379Z,50.70
2022-08-28T14:00:50.452Z,50.70
2022-08-28T14:03:39.307Z,50.67
2022-08-28T14:06:31.638Z,50.46
2022-08-28T14:09:20.225Z,50.46
2022-08-28T14:12:12.142Z,50.33
2022-08-28T14:15:01.317Z,50.16
2022-08-28T14:17:49.299Z,49.02
2022-08-28T14:20:39.015Z,49.15
2022-08-28T14:23:26.952Z,49.00
2022-08-28T14:26:14.716Z,49.13
2022-08-28T14:29:06.291Z,49.10
2022-08-28T14:31:54.411Z,49.66
2022-08-28T14:34:44.802Z,50.57
2022-08-28T14:37:33.490Z,50.83
2022-08-28T14:40:21.052Z,51.31
2022-08-28T14:43:10.721Z,52.09
2022-08-28T14:45:58.233Z,52.87
2022-08-28T14:48:46.269Z,53.51
2022-08-28T14:51:38.149Z,54.17
2022-08-28T14:54:26.443Z,53.69
2022-08-28T14:57:15.239Z,53.40
2022-08-28T15:00:05.307Z,54.15
2022-08-28T15:02:59.616Z,54.50
2022-08-28T15:05:48.203Z,54.88
2022-08-28T15:08:37.841Z,54.98
2022-08-28T15:11:28.978Z,55.16
2022-08-28T15:14:17.381Z,55.15
2022-08-28T15:17:06.106Z,55.11
2022-08-28T15:19:54.009Z,55.24
2022-08-28T15:22:42.433Z,55.19
2022-08-28T15:25:30.601Z,55.06
2022-08-28T15:28:20.764Z,54.65
2022-08-28T15:31:10.924Z,54.30
2022-08-28T15:34:13.190Z,54.13
2022-08-28T15:37:08.771Z,54.55
2022-08-28T15:40:28.769Z,54.88
2022-08-28T15:43:19.484Z,54.96
2022-08-28T15:46:14.252Z,55.52
2022-08-28T15:49:09.395Z,56.20
2022-08-28T15:51:59.276Z,56.57
2022-08-28T15:54:49.835Z,57.42
2022-08-28T15:57:37.921Z,57.75
2022-08-28T16:00:26.076Z,58.19
2022-08-28T16:03:14.233Z,58.40
2022-08-28T16:06:06.267Z,58.46
2022-08-28T16:08:53.921Z,58.96
2022-08-28T16:11:44.061Z,59.39
2022-08-28T16:14:33.372Z,59.50
2022-08-28T16:17:21.648Z,58.75
2022-08-28T16:20:12.830Z,58.99
2022-08-28T16:23:01.131Z,59.23
2022-08-28T16:25:49.685Z,59.43
2022-08-28T16:28:38.823Z,60.09
2022-08-28T16:31:26.846Z,60.98
2022-08-28T16:34:15.800Z,61.38
2022-08-28T16:37:08.011Z,62.12
2022-08-28T16:39:56.530Z,63.35
2022-08-28T16:42:51.420Z,64.19
2022-08-28T16:45:46.382Z,64.82
2022-08-28T16:48:34.438Z,65.76
2022-08-28T16:51:27.074Z,65.83
2022-08-28T16:54:18.274Z,66.89
2022-08-28T16:57:06.012Z,67.53
2022-08-28T17:00:00.515Z,68.45
2022-08-28T17:02:49.379Z,69.78
2022-08-28T17:05:37.087Z,70.13
2022-08-28T17:08:26.550Z,70.96
2022-08-28T17:11:15.243Z,71.46
2022-08-28T17:14:03.483Z,72.16
2022-08-28T17:16:52.672Z,72.73
2022-08-28T17:19:40.397Z,73.43
2022-08-28T17:22:32.155Z,73.71
2022-08-28T17:25:20.513Z,73.99
2022-08-28T17:28:08.657Z,74.08
2022-08-28T17:30:57.740Z,74.44
2022-08-28T17:33:46.076Z,74.63
2022-08-28T17:36:36.430Z,75.31
2022-08-28T17:39:25.610Z,75.40
2022-08-28T17:42:14.047Z,75.74
2022-08-28T17:45:05.497Z,76.39
2022-08-28T17:47:53.740Z,76.56
2022-08-28T17:50:41.500Z,77.13
2022-08-28T17:53:30.152Z,77.23
2022-08-28T17:56:18.551Z,77.56
2022-08-28T17:59:09.375Z,77.53
2022-08-28T18:01:57.158Z,77.24
2022-08-28T18:04:45.202Z,77.00
2022-08-28T18:07:33.407Z,77.46
2022-08-28T18:10:21.911Z,77.62
2022-08-28T18:13:09.595Z,77.76
2022-08-28T18:15:57.894Z,77.86
2022-08-28T18:18:45.573Z,77.81
2022-08-28T18:21:33.807Z,78.27
2022-08-28T18:24:22.044Z,78.92
2022-08-28T18:27:11.134Z,79.15
2022-08-28T18:30:02.750Z,78.97
2022-08-28T18:32:54.779Z,79.60
2022-08-28T18:35:50.741Z,79.84
2022-08-28T18:38:45.235Z,79.96
2022-08-28T18:41:43.574Z,80.31
2022-08-28T18:44:33.291Z,80.59
2022-08-28T18:47:30.279Z,81.22
2022-08-28T18:50:22.062Z,81.65
2022-08-28T18:53:10.326Z,81.57
2022-08-28T18:56:02.691Z,82.53
2022-08-28T18:58:53.527Z,82.12
2022-08-28T19:01:43.945Z,82.15
2022-08-28T19:04:33.921Z,82.30
2022-08-28T19:07:25.839Z,82.50
2022-08-28T19:10:32.029Z,82.32
2022-08-28T19:13:23.718Z,82.57
2022-08-28T19:16:20.699Z,82.85
2022-08-28T19:19:12.210Z,83.08
2022-08-28T19:22:01.164Z,83.25
2022-08-28T19:24:56.310Z,82.95
2022-08-28T19:27:49.787Z,83.30
2022-08-28T19:30:47.433Z,83.63
2022-08-28T19:33:42.794Z,83.93
2022-08-28T19:36:31.029Z,84.00
2022-08-28T19:39:23.139Z,84.46
2022-08-28T19:42:11.036Z,84.64
2022-08-28T19:45:00.185Z,85.23
2022-08-28T19:47:48.183Z,85.23
2022-08-28T19:50:38.861Z,85.67
2022-08-28T19:53:27.959Z,86.27
2022-08-28T19:56:19.234Z,87.10
2022-08-28T19:59:15.197Z,87.30
2022-08-28T20:02:06.891Z,87.39
2022-08-28T20:04:58.207Z,87.78
2022-08-28T20:07:45.997Z,87.83
2022-08-28T20:10:34.043Z,88.16
2022-08-28T20:13:22.448Z,88.84
2022-08-28T20:16:11.135Z,88.95
2022-08-28T20:18:59.330Z,89.50
2022-08-28T20:21:50.133Z,89.47
2022-08-28T20:24:39.658Z,89.79
2022-08-28T20:27:28.228Z,89.79
2022-08-28T20:30:16.752Z,90.00
2022-08-28T20:33:07.725Z,90.51
2022-08-28T20:36:04.738Z,90.52
2022-08-28T20:38:52.819Z,90.82
2022-08-28T20:41:46.086Z,91.70
2022-08-28T20:44:34.327Z,91.48
2022-08-28T20:47:22.377Z,91.89
2022-08-28T20:50:14.123Z,92.30
2022-08-28T20:53:04.008Z,92.09
2022-08-28T20:55:56.230Z,92.62
2022-08-28T20:58:44.676Z,92.94
2022-08-28T21:01:34.135Z,92.68
2022-08-28T21:04:23.943Z,93.03
2022-08-28T21:07:15.733Z,93.33
2022-08-28T21:10:07.751Z,93.64
2022-08-28T21:12:56.249Z,93.68
2022-08-28T21:15:44.076Z,93.58
2022-08-28T21:18:32.028Z,93.83
2022-08-28T21:21:19.894Z,94.60
2022-08-28T21:24:13.660Z,94.75
2022-08-28T21:27:02.596Z,95.15
2022-08-28T21:29:51.704Z,95.11
2022-08-28T21:32:39.898Z,94.77
2022-08-28T21:35:28.861Z,94.92
2022-08-28T21:38:16.616Z,94.48
2022-08-28T21:41:12.550Z,94.84
2022-08-28T21:44:00.973Z,94.75
2022-08-28T21:46:49.143Z,94.34
2022-08-28T21:49:37.733Z,94.52
2022-08-28T21:52:30.802Z,94.29
2022-08-28T21:55:18.682Z,94.25
2022-08-28T21:58:06.904Z,93.88
2022-08-28T22:00:57.454Z,93.54
2022-08-28T22:03:45.550Z,93.18
2022-08-28T22:06:34.012Z,92.82
2022-08-28T22:09:22.181Z,92.78
2022-08-28T22:12:10.914Z,92.33
2022-08-28T22:14:58.736Z,91.92
2022-08-28T22:17:46.678Z,91.63
2022-08-28T22:20:37.065Z,91.16
2022-08-28T22:23:26.288Z,90.36
2022-08-28T22:26:19.511Z,89.60
2022-08-28T22:29:08.283Z,89.19
2022-08-28T22:31:56.074Z,89.00
2022-08-28T22:34:46.440Z,88.47
2022-08-28T22:37:36.070Z,88.20
2022-08-28T22:40:24.581Z,87.92
2022-08-28T22:43:12.972Z,87.76
2022-08-28T22:46:01.595Z,86.95
2022-08-28T22:48:51.408Z,86.54
2022-08-28T22:51:39.669Z,86.57
2022-08-28T22:54:27.838Z,86.81
2022-08-28T22:57:15.940Z,87.23
2022-08-28T23:00:11.730Z,87.63
2022-08-28T23:03:00.353Z,88.16
2022-08-28T23:05:48.764Z,88.37
2022-08-28T23:08:37.010Z,88.74
2022-08-28T23:11:28.134Z,89.52
2022-08-28T23:14:15.994Z,90.42
2022-08-28T23:17:03.877Z,91.30
2022-08-28T23:19:52.860Z,91.45
2022-08-28T23:22:40.908Z,92.90
2022-08-28T23:25:28.961Z,93.85
2022-08-28T23:28:18.442Z,94.19
2022-08-28T23:31:07.634Z,94.48
2022-08-28T23:33:55.836Z,95.49
2022-08-28T23:36:43.883Z,95.82
2022-08-28T23:39:31.741Z,96.23
2022-08-28T23:42:19.863Z,97.04
2022-08-28T23:45:09.547Z,97.03
2022-08-28T23:47:57.885Z,97.67
2022-08-28T23:50:48.117Z,97.89
2022-08-28T23:53:36.006Z,98.58
2022-08-28T23:56:23.952Z,99.67
2022-08-28T23:59:16.304Z,100.00
